createdAt,value
2019-03-02T00:00:05.395Z,90.20
2019-03-02T00:02:32.972Z,90.30
2019-03-02T00:05:02.032Z,90.30
2019-03-02T00:07:28.192Z,90.40
2019-03-02T00:09:55.767Z,90.50
2019-03-02T00:12:23.351Z,90.60
2019-03-02T00:14:54.146Z,90.70
2019-03-02T00:17:19.062Z,90.60
2019-03-02T00:19:46.147Z,90.70
2019-03-02T00:22:13.732Z,90.70
2019-03-02T00:24:42.341Z,90.80
2019-03-02T00:27:09.698Z,90.70
2019-03-02T00:29:37.295Z,90.80
2019-03-02T00:32:05.932Z,90.90
2019-03-02T00:34:32.937Z,90.90
2019-03-02T00:37:00.124Z,90.90
2019-03-02T00:39:27.692Z,90.70
2019-03-02T00:41:55.270Z,90.70
2019-03-02T00:44:22.927Z,90.30
2019-03-02T00:46:50.515Z,90.10
2019-03-02T00:49:19.494Z,90.20
2019-03-02T00:51:46.341Z,90.30
2019-03-02T00:54:14.350Z,90.40
2019-03-02T00:56:42.850Z,90.50
2019-03-02T00:59:09.554Z,90.60
2019-03-02T01:01:37.141Z,90.80
2019-03-02T01:04:04.817Z,90.40
2019-03-02T01:06:32.398Z,90.50
2019-03-02T01:09:01.146Z,90.00
2019-03-02T01:11:29.446Z,90.30
2019-03-02T01:13:57.660Z,90.20
2019-03-02T01:16:24.699Z,90.20
2019-03-02T01:18:52.280Z,90.20
2019-03-02T01:21:19.902Z,90.20
2019-03-02T01:23:48.252Z,90.00
2019-03-02T01:26:15.941Z,90.00
2019-03-02T01:28:45.392Z,90.20
2019-03-02T01:31:12.375Z,90.20
2019-03-02T01:33:39.997Z,89.90
2019-03-02T01:36:07.574Z,90.00
2019-03-02T01:38:35.170Z,90.00
2019-03-02T01:41:02.765Z,90.20
2019-03-02T01:43:30.367Z,90.30
2019-03-02T01:45:59.840Z,90.50
2019-03-02T01:48:26.569Z,90.30
2019-03-02T01:50:53.598Z,90.20
2019-03-02T01:53:21.967Z,90.80
2019-03-02T01:55:49.551Z,90.40
2019-03-02T01:58:17.509Z,90.50
2019-03-02T02:00:49.083Z,90.90
2019-03-02T02:03:13.451Z,90.60
2019-03-02T02:05:41.826Z,90.70
2019-03-02T02:08:09.412Z,90.60
2019-03-02T02:10:39.925Z,90.70
2019-03-02T02:13:06.162Z,90.80
2019-03-02T02:15:32.200Z,90.90
2019-03-02T02:17:59.805Z,90.80
2019-03-02T02:20:27.659Z,90.60
2019-03-02T02:22:55.301Z,90.60
2019-03-02T02:25:22.895Z,90.70
2019-03-02T02:27:50.477Z,90.60
2019-03-02T02:30:24.545Z,90.60
2019-03-02T02:32:48.785Z,90.40
2019-03-02T02:35:16.412Z,90.30
2019-03-02T02:37:43.991Z,90.50
2019-03-02T02:40:12.578Z,90.70
2019-03-02T02:42:43.387Z,91.30
2019-03-02T02:45:17.386Z,91.20
2019-03-02T02:47:50.463Z,91.20
2019-03-02T02:50:12.994Z,91.30
2019-03-02T02:52:40.577Z,91.40
2019-03-02T02:55:08.196Z,91.80
2019-03-02T02:57:38.312Z,91.40
2019-03-02T03:00:19.217Z,91.30
2019-03-02T03:02:46.830Z,91.30
2019-03-02T03:05:15.234Z,91.40
2019-03-02T03:07:41.995Z,91.50
2019-03-02T03:10:29.583Z,91.70
2019-03-02T03:12:56.874Z,91.70
2019-03-02T03:15:23.479Z,91.80
2019-03-02T03:17:51.058Z,92.10
2019-03-02T03:20:18.676Z,91.70
2019-03-02T03:22:47.517Z,91.90
2019-03-02T03:25:17.614Z,91.60
2019-03-02T03:27:41.476Z,91.60
2019-03-02T03:30:11.568Z,91.60
2019-03-02T03:32:39.186Z,91.60
2019-03-02T03:35:15.427Z,91.70
2019-03-02T03:37:35.168Z,91.80
2019-03-02T03:40:02.752Z,91.70
2019-03-02T03:42:30.366Z,91.80
2019-03-02T03:44:59.859Z,91.90
2019-03-02T03:47:25.531Z,91.90
2019-03-02T03:49:53.148Z,91.90
2019-03-02T03:52:20.763Z,91.70
2019-03-02T03:54:48.318Z,91.70
2019-03-02T03:57:17.192Z,91.80
2019-03-02T03:59:43.519Z,91.90
2019-03-02T04:02:11.403Z,91.90
2019-03-02T04:04:38.993Z,92.00
2019-03-02T04:07:08.026Z,92.00
2019-03-02T04:09:34.188Z,92.10
2019-03-02T04:12:01.774Z,92.20
2019-03-02T04:14:29.493Z,91.80
2019-03-02T04:17:00.573Z,91.80
2019-03-02T04:19:29.471Z,91.90
2019-03-02T04:21:54.972Z,92.00
2019-03-02T04:24:22.558Z,92.10
2019-03-02T04:26:50.524Z,92.10
2019-03-02T04:29:18.116Z,92.10
2019-03-02T04:31:48.817Z,92.40
2019-03-02T04:34:20.661Z,92.40
2019-03-02T04:36:43.065Z,91.90
2019-03-02T04:39:09.762Z,91.90
2019-03-02T04:41:39.569Z,91.90
2019-03-02T04:44:05.208Z,92.00
2019-03-02T04:46:32.819Z,92.30
2019-03-02T04:49:00.402Z,92.10
2019-03-02T04:51:28.053Z,92.30
2019-03-02T04:53:58.110Z,91.90
2019-03-02T04:56:24.144Z,91.90
2019-03-02T04:58:50.819Z,91.90
2019-03-02T05:01:18.419Z,91.90
2019-03-02T05:03:46.389Z,92.20
2019-03-02T05:06:15.666Z,92.00
2019-03-02T05:08:42.430Z,92.10
2019-03-02T05:11:09.956Z,92.10
2019-03-02T05:13:37.537Z,92.10
2019-03-02T05:16:05.142Z,92.10
2019-03-02T05:18:32.724Z,91.80
2019-03-02T05:21:01.067Z,92.00
2019-03-02T05:23:30.567Z,92.00
2019-03-02T05:25:56.254Z,92.10
2019-03-02T05:28:35.638Z,92.20
2019-03-02T05:31:06.267Z,92.20
2019-03-02T05:33:31.967Z,92.30
2019-03-02T05:35:59.577Z,92.30
2019-03-02T05:38:28.520Z,92.50
2019-03-02T05:40:56.129Z,92.50
2019-03-02T05:43:26.979Z,92.50
2019-03-02T05:45:51.297Z,92.60
2019-03-02T05:48:18.905Z,92.70
2019-03-02T05:50:47.254Z,93.00
2019-03-02T05:53:14.868Z,92.70
2019-03-02T05:55:42.457Z,92.70
2019-03-02T05:58:12.579Z,92.70
2019-03-02T06:00:38.896Z,92.70
2019-03-02T06:03:05.256Z,92.80
2019-03-02T06:05:33.472Z,92.90
2019-03-02T06:08:01.209Z,92.80
2019-03-02T06:10:28.794Z,92.80
2019-03-02T06:12:56.395Z,92.90
2019-03-02T06:15:24.498Z,93.00
2019-03-02T06:17:52.195Z,92.90
2019-03-02T06:20:19.776Z,93.00
2019-03-02T06:22:47.364Z,93.00
2019-03-02T06:25:20.830Z,93.00
2019-03-02T06:27:43.170Z,93.00
2019-03-02T06:30:16.207Z,93.10
2019-03-02T06:32:43.855Z,93.10
2019-03-02T06:35:11.452Z,93.00
2019-03-02T06:37:39.049Z,93.00
2019-03-02T06:40:07.428Z,92.80
2019-03-02T06:42:35.782Z,92.90
2019-03-02T06:45:05.711Z,92.80
2019-03-02T06:47:33.394Z,92.90
2019-03-02T06:49:59.342Z,93.20
2019-03-02T06:52:26.260Z,92.70
2019-03-02T06:54:53.773Z,92.60
2019-03-02T06:57:21.351Z,92.60
2019-03-02T06:59:48.963Z,92.60
2019-03-02T07:02:16.551Z,92.60
2019-03-02T07:04:44.169Z,92.50
2019-03-02T07:07:12.520Z,92.20
2019-03-02T07:09:41.740Z,92.20
2019-03-02T07:12:09.460Z,92.40
2019-03-02T07:14:35.300Z,92.50
2019-03-02T07:17:02.915Z,92.60
2019-03-02T07:19:30.500Z,92.70
2019-03-02T07:21:58.109Z,93.10
2019-03-02T07:24:29.481Z,92.70
2019-03-02T07:26:54.553Z,92.70
2019-03-02T07:29:21.653Z,92.80
2019-03-02T07:31:49.627Z,92.90
2019-03-02T07:34:16.860Z,93.00
2019-03-02T07:36:44.450Z,93.10
2019-03-02T07:39:12.447Z,93.40
2019-03-02T07:41:40.596Z,93.10
2019-03-02T07:44:08.186Z,93.10
2019-03-02T07:46:35.792Z,93.10
2019-03-02T07:49:03.377Z,93.20
2019-03-02T07:51:31.066Z,93.30
2019-03-02T07:54:02.036Z,93.50
2019-03-02T07:56:29.575Z,93.60
2019-03-02T07:58:54.881Z,93.90
2019-03-02T08:01:21.702Z,93.60
2019-03-02T08:03:49.329Z,93.50
2019-03-02T08:06:16.914Z,93.60
2019-03-02T08:08:45.807Z,93.60
2019-03-02T08:11:13.525Z,93.60
2019-03-02T08:13:40.014Z,93.60
2019-03-02T08:16:08.039Z,93.80
2019-03-02T08:18:35.611Z,93.90
2019-03-02T08:21:03.192Z,93.90
2019-03-02T08:23:30.800Z,93.80
2019-03-02T08:25:58.380Z,93.80
2019-03-02T08:28:25.999Z,93.80
2019-03-02T08:30:53.576Z,93.80
2019-03-02T08:33:21.178Z,93.70
2019-03-02T08:35:49.570Z,93.60
2019-03-02T08:38:18.384Z,93.50
2019-03-02T08:40:44.988Z,93.30
2019-03-02T08:43:16.466Z,93.00
2019-03-02T08:45:40.933Z,93.00
2019-03-02T08:48:09.144Z,92.90
2019-03-02T08:50:36.729Z,93.00
2019-03-02T08:53:04.344Z,92.90
2019-03-02T08:55:33.549Z,92.80
2019-03-02T08:57:59.512Z,92.80
2019-03-02T09:00:27.121Z,92.40
2019-03-02T09:02:55.095Z,92.20
2019-03-02T09:05:26.016Z,92.00
2019-03-02T09:07:49.889Z,91.70
2019-03-02T09:10:18.252Z,91.30
2019-03-02T09:12:45.845Z,91.30
2019-03-02T09:15:16.352Z,91.20
2019-03-02T09:17:44.707Z,90.70
2019-03-02T09:20:12.295Z,90.70
2019-03-02T09:22:39.925Z,90.60
2019-03-02T09:25:07.519Z,90.30
2019-03-02T09:27:35.101Z,89.60
2019-03-02T09:30:02.710Z,89.20
2019-03-02T09:32:30.295Z,88.50
2019-03-02T09:34:57.963Z,88.40
2019-03-02T09:37:26.323Z,88.50
2019-03-02T09:39:53.903Z,88.00
2019-03-02T09:42:22.283Z,86.90
2019-03-02T09:44:50.633Z,87.20
2019-03-02T09:47:18.736Z,86.50
2019-03-02T09:49:46.316Z,86.10
2019-03-02T09:52:14.663Z,85.40
2019-03-02T09:54:42.268Z,85.40
2019-03-02T09:57:09.868Z,85.00
2019-03-02T09:59:37.750Z,83.10
2019-03-02T10:02:05.346Z,82.60
2019-03-02T10:04:35.881Z,80.70
2019-03-02T10:07:02.026Z,80.60
2019-03-02T10:09:31.379Z,80.60
2019-03-02T10:11:57.280Z,80.60
2019-03-02T10:14:26.487Z,80.50
2019-03-02T10:16:52.583Z,80.40
2019-03-02T10:19:20.193Z,80.50
2019-03-02T10:21:48.792Z,80.20
2019-03-02T10:24:17.077Z,79.70
2019-03-02T10:26:44.626Z,78.60
2019-03-02T10:29:12.246Z,78.50
2019-03-02T10:31:40.644Z,77.80
2019-03-02T10:34:08.204Z,77.10
2019-03-02T10:36:35.835Z,76.70
2019-03-02T10:39:03.426Z,76.00
2019-03-02T10:41:31.017Z,76.20
2019-03-02T10:43:59.406Z,73.90
2019-03-02T10:46:27.752Z,74.00
2019-03-02T10:48:55.378Z,73.90
2019-03-02T10:51:22.989Z,73.50
2019-03-02T10:53:50.577Z,73.00
2019-03-02T10:56:20.971Z,72.50
2019-03-02T10:58:45.759Z,72.00
2019-03-02T11:01:13.374Z,72.10
2019-03-02T11:03:41.723Z,72.90
2019-03-02T11:06:11.911Z,72.90
2019-03-02T11:08:49.200Z,72.70
2019-03-02T11:11:16.830Z,72.40
2019-03-02T11:13:45.748Z,72.50
2019-03-02T11:16:24.163Z,72.50
2019-03-02T11:19:11.515Z,72.50
2019-03-02T11:21:58.376Z,72.30
2019-03-02T11:24:23.967Z,71.80
2019-03-02T11:27:13.108Z,71.00
2019-03-02T11:29:50.969Z,71.30
2019-03-02T11:32:24.620Z,71.20
2019-03-02T11:34:52.196Z,71.50
2019-03-02T11:37:37.702Z,71.60
2019-03-02T11:40:05.307Z,71.80
2019-03-02T11:42:35.574Z,71.90
2019-03-02T11:45:03.946Z,70.60
2019-03-02T11:47:40.301Z,70.60
2019-03-02T11:50:26.271Z,69.70
2019-03-02T11:52:53.854Z,69.50
2019-03-02T11:55:30.059Z,69.70
2019-03-02T11:58:00.039Z,69.90
2019-03-02T12:00:37.779Z,69.50
2019-03-02T12:03:06.029Z,69.90
2019-03-02T12:05:46.340Z,70.20
2019-03-02T12:08:22.143Z,69.90
2019-03-02T12:10:47.678Z,70.00
2019-03-02T12:13:27.760Z,70.00
2019-03-02T12:15:57.952Z,69.90
2019-03-02T12:18:29.173Z,70.20
2019-03-02T12:20:59.418Z,70.10
2019-03-02T12:23:37.556Z,70.70
2019-03-02T12:26:21.521Z,71.10
2019-03-02T12:28:55.060Z,70.80
2019-03-02T12:31:32.093Z,71.20
2019-03-02T12:34:02.824Z,72.30
2019-03-02T12:36:30.406Z,72.10
2019-03-02T12:38:57.993Z,72.50
2019-03-02T12:41:28.428Z,72.10
2019-03-02T12:43:56.774Z,71.60
2019-03-02T12:46:39.399Z,71.40
2019-03-02T12:49:18.689Z,71.80
2019-03-02T12:51:51.965Z,72.40
2019-03-02T12:54:26.036Z,73.20
2019-03-02T12:56:53.644Z,73.20
2019-03-02T12:59:35.953Z,74.20
2019-03-02T13:02:01.705Z,74.10
2019-03-02T13:04:29.288Z,74.60
2019-03-02T13:07:05.942Z,74.90
2019-03-02T13:09:36.823Z,75.10
2019-03-02T13:12:16.214Z,75.60
2019-03-02T13:14:44.527Z,76.30
2019-03-02T13:17:27.505Z,76.30
2019-03-02T13:19:58.854Z,76.50
2019-03-02T13:22:26.156Z,76.90
2019-03-02T13:24:57.877Z,77.50
2019-03-02T13:27:41.775Z,78.20
2019-03-02T13:30:09.387Z,78.80
2019-03-02T13:32:36.966Z,79.30
2019-03-02T13:35:07.015Z,79.50
2019-03-02T13:37:34.607Z,79.60
2019-03-02T13:40:02.187Z,79.80
2019-03-02T13:42:29.791Z,79.70
2019-03-02T13:44:57.370Z,80.10
2019-03-02T13:47:45.059Z,79.10
2019-03-02T13:50:20.471Z,79.10
2019-03-02T13:53:06.017Z,78.60
2019-03-02T13:55:33.594Z,78.90
2019-03-02T13:58:01.966Z,80.70
2019-03-02T14:00:40.725Z,80.60
2019-03-02T14:03:14.203Z,80.20
2019-03-02T14:05:57.192Z,80.60
2019-03-02T14:08:24.761Z,81.00
2019-03-02T14:11:01.354Z,81.60
2019-03-02T14:13:43.788Z,82.10
2019-03-02T14:16:23.530Z,82.40
2019-03-02T14:18:56.881Z,82.70
2019-03-02T14:21:30.449Z,83.10
2019-03-02T14:24:07.624Z,83.30
2019-03-02T14:26:46.388Z,84.00
2019-03-02T14:29:14.262Z,83.50
2019-03-02T14:31:53.545Z,83.30
2019-03-02T14:34:21.167Z,83.50
2019-03-02T14:36:48.757Z,83.50
2019-03-02T14:39:17.108Z,84.10
2019-03-02T14:41:44.708Z,84.20
2019-03-02T14:44:33.498Z,83.50
2019-03-02T14:47:01.326Z,83.70
2019-03-02T14:49:43.652Z,83.80
2019-03-02T14:52:14.280Z,84.90
2019-03-02T14:54:41.865Z,84.40
2019-03-02T14:57:21.053Z,84.70
2019-03-02T14:59:46.804Z,84.80
2019-03-02T15:02:20.225Z,84.80
2019-03-02T15:04:53.519Z,85.00
2019-03-02T15:07:24.022Z,85.00
2019-03-02T15:09:54.517Z,85.20
2019-03-02T15:12:24.573Z,85.40
2019-03-02T15:15:03.786Z,85.40
2019-03-02T15:17:31.383Z,85.50
2019-03-02T15:20:01.725Z,85.60
2019-03-02T15:22:29.357Z,85.50
2019-03-02T15:25:14.857Z,86.10
2019-03-02T15:27:52.945Z,85.50
2019-03-02T15:30:26.800Z,85.90
2019-03-02T15:33:02.247Z,86.30
2019-03-02T15:35:38.792Z,87.00
2019-03-02T15:38:09.396Z,87.60
2019-03-02T15:40:54.864Z,88.00
2019-03-02T15:43:31.371Z,88.20
2019-03-02T15:46:08.038Z,88.50
2019-03-02T15:48:38.345Z,88.90
2019-03-02T15:51:27.025Z,88.90
2019-03-02T15:54:04.841Z,89.10
2019-03-02T15:56:40.922Z,89.30
2019-03-02T15:59:08.525Z,89.50
2019-03-02T16:01:45.085Z,89.40
2019-03-02T16:04:14.408Z,89.90
2019-03-02T16:06:47.837Z,89.80
2019-03-02T16:09:15.422Z,90.10
2019-03-02T16:11:54.917Z,90.20
2019-03-02T16:14:47.795Z,90.40
2019-03-02T16:17:15.687Z,90.50
2019-03-02T16:20:02.465Z,90.40
2019-03-02T16:22:30.110Z,90.30
2019-03-02T16:25:04.913Z,90.40
2019-03-02T16:27:39.297Z,90.40
2019-03-02T16:30:11.466Z,90.50
2019-03-02T16:32:57.384Z,90.70
2019-03-02T16:35:45.504Z,91.00
2019-03-02T16:38:27.066Z,91.70
2019-03-02T16:41:16.426Z,91.30
2019-03-02T16:43:47.151Z,91.40
2019-03-02T16:46:38.179Z,91.70
2019-03-02T16:49:20.929Z,92.00
2019-03-02T16:51:50.030Z,91.80
2019-03-02T16:54:17.647Z,92.00
2019-03-02T16:56:45.242Z,92.20
2019-03-02T16:59:32.211Z,92.30
2019-03-02T17:02:05.473Z,92.40
2019-03-02T17:04:39.542Z,92.50
2019-03-02T17:07:26.515Z,92.80
2019-03-02T17:09:56.645Z,92.90
2019-03-02T17:12:30.691Z,93.10
2019-03-02T17:14:58.468Z,93.10
2019-03-02T17:17:40.848Z,93.10
2019-03-02T17:20:17.558Z,93.20
2019-03-02T17:22:47.634Z,93.30
2019-03-02T17:25:18.471Z,93.30
2019-03-02T17:27:46.039Z,93.30
2019-03-02T17:30:17.764Z,93.20
2019-03-02T17:32:58.922Z,93.30
2019-03-02T17:35:30.192Z,93.40
2019-03-02T17:38:02.808Z,93.50
2019-03-02T17:40:42.241Z,93.50
2019-03-02T17:43:12.041Z,93.60
2019-03-02T17:45:39.640Z,93.50
2019-03-02T17:48:09.949Z,93.50
2019-03-02T17:50:37.553Z,93.50
2019-03-02T17:53:16.984Z,93.60
2019-03-02T17:55:44.562Z,93.60
2019-03-02T17:58:21.127Z,93.50
2019-03-02T18:00:56.992Z,93.50
2019-03-02T18:03:25.158Z,93.40
2019-03-02T18:06:11.091Z,93.60
2019-03-02T18:08:48.644Z,93.10
2019-03-02T18:11:18.872Z,93.10
2019-03-02T18:13:49.494Z,93.00
2019-03-02T18:16:17.102Z,93.00
2019-03-02T18:18:45.458Z,92.90
2019-03-02T18:21:15.068Z,92.90
2019-03-02T18:23:42.677Z,92.80
2019-03-02T18:26:11.194Z,93.00
2019-03-02T18:28:37.883Z,92.50
2019-03-02T18:31:06.227Z,92.00
2019-03-02T18:33:39.458Z,92.00
2019-03-02T18:36:09.895Z,92.10
2019-03-02T18:38:35.395Z,92.10
2019-03-02T18:41:03.775Z,92.30
2019-03-02T18:43:32.128Z,92.30
2019-03-02T18:45:59.757Z,92.30
2019-03-02T18:48:29.970Z,92.30
2019-03-02T18:50:54.933Z,92.30
2019-03-02T18:53:23.303Z,92.40
2019-03-02T18:55:50.923Z,92.40
2019-03-02T18:58:19.283Z,92.30
2019-03-02T19:00:46.868Z,92.30
2019-03-02T19:03:14.505Z,92.20
2019-03-02T19:05:42.087Z,92.20
2019-03-02T19:08:11.622Z,92.30
2019-03-02T19:10:39.727Z,92.20
2019-03-02T19:13:07.963Z,92.10
2019-03-02T19:15:32.525Z,92.10
2019-03-02T19:18:00.067Z,92.10
2019-03-02T19:20:27.646Z,91.70
2019-03-02T19:22:55.264Z,92.00
2019-03-02T19:25:22.860Z,91.90
2019-03-02T19:27:51.556Z,91.90
2019-03-02T19:30:22.136Z,91.80
2019-03-02T19:32:49.872Z,91.80
2019-03-02T19:35:17.451Z,91.60
2019-03-02T19:37:45.035Z,91.60
2019-03-02T19:40:15.140Z,91.50
2019-03-02T19:42:42.727Z,91.30
2019-03-02T19:45:10.303Z,91.30
2019-03-02T19:47:37.904Z,90.90
2019-03-02T19:50:13.916Z,90.80
2019-03-02T19:52:41.573Z,90.70
2019-03-02T19:55:09.926Z,90.60
2019-03-02T19:57:37.507Z,90.60
2019-03-02T20:00:08.718Z,90.50
2019-03-02T20:02:36.311Z,90.50
2019-03-02T20:05:04.005Z,90.10
2019-03-02T20:07:31.604Z,90.00
2019-03-02T20:09:59.201Z,90.00
2019-03-02T20:12:26.843Z,90.00
2019-03-02T20:14:54.694Z,89.70
2019-03-02T20:17:22.316Z,89.70
2019-03-02T20:19:50.668Z,89.60
2019-03-02T20:22:18.248Z,89.60
2019-03-02T20:24:46.621Z,88.10
2019-03-02T20:27:14.968Z,87.50
2019-03-02T20:29:42.598Z,87.40
2019-03-02T20:32:10.177Z,87.30
2019-03-02T20:34:37.769Z,86.90
2019-03-02T20:37:05.370Z,87.40
2019-03-02T20:39:32.955Z,86.70
2019-03-02T20:42:00.581Z,86.90
2019-03-02T20:44:28.933Z,87.20
2019-03-02T20:46:56.522Z,87.10
2019-03-02T20:49:24.894Z,87.10
2019-03-02T20:51:53.375Z,86.70
2019-03-02T20:54:21.335Z,86.70
2019-03-02T20:56:48.917Z,86.70
2019-03-02T20:59:17.298Z,87.20
2019-03-02T21:01:45.679Z,87.30
2019-03-02T21:04:13.283Z,87.30
2019-03-02T21:06:40.919Z,87.60
2019-03-02T21:09:08.505Z,88.10
2019-03-02T21:11:36.099Z,88.40
2019-03-02T21:14:03.712Z,88.90
2019-03-02T21:16:35.027Z,89.30
2019-03-02T21:19:02.566Z,89.50
2019-03-02T21:21:30.174Z,89.70
2019-03-02T21:23:58.545Z,90.00
2019-03-02T21:26:26.916Z,90.00
2019-03-02T21:28:55.274Z,90.20
2019-03-02T21:31:22.906Z,90.20
2019-03-02T21:33:50.535Z,90.30
2019-03-02T21:36:18.202Z,90.70
2019-03-02T21:38:45.837Z,90.50
2019-03-02T21:41:19.251Z,90.60
2019-03-02T21:43:46.867Z,91.00
2019-03-02T21:46:14.466Z,90.80
2019-03-02T21:48:42.173Z,90.90
2019-03-02T21:51:09.714Z,91.10
2019-03-02T21:53:37.296Z,91.20
2019-03-02T21:56:04.982Z,91.30
2019-03-02T21:58:32.577Z,91.40
2019-03-02T22:01:00.189Z,91.50
2019-03-02T22:03:27.778Z,91.50
2019-03-02T22:05:55.353Z,91.70
2019-03-02T22:08:22.954Z,91.30
2019-03-02T22:10:53.959Z,91.30
2019-03-02T22:13:21.554Z,91.30
2019-03-02T22:15:49.153Z,91.40
2019-03-02T22:18:16.771Z,91.50
2019-03-02T22:20:44.352Z,91.50
2019-03-02T22:23:18.656Z,91.50
2019-03-02T22:25:46.256Z,91.50
2019-03-02T22:28:13.834Z,91.50
2019-03-02T22:30:41.482Z,91.50
2019-03-02T22:33:09.074Z,91.40
2019-03-02T22:35:37.422Z,91.50
2019-03-02T22:38:05.026Z,91.30
2019-03-02T22:40:33.373Z,91.30
2019-03-02T22:43:00.998Z,91.30
2019-03-02T22:45:28.562Z,91.20
2019-03-02T22:47:56.148Z,91.00
2019-03-02T22:50:26.496Z,91.00
2019-03-02T22:52:54.174Z,90.90
2019-03-02T22:55:22.423Z,90.80
2019-03-02T22:57:50.040Z,90.80
2019-03-02T23:00:23.585Z,90.70
2019-03-02T23:02:50.697Z,90.70
2019-03-02T23:05:18.281Z,90.60
2019-03-02T23:07:46.023Z,90.60
2019-03-02T23:10:14.657Z,90.60
2019-03-02T23:12:42.229Z,90.50
2019-03-02T23:15:18.554Z,90.40
2019-03-02T23:17:46.097Z,90.40
2019-03-02T23:20:13.676Z,90.40
2019-03-02T23:22:41.287Z,90.40
2019-03-02T23:25:11.847Z,90.30
2019-03-02T23:27:39.972Z,90.40
2019-03-02T23:30:19.420Z,90.30
2019-03-02T23:32:47.057Z,90.40
2019-03-02T23:35:14.627Z,90.30
2019-03-02T23:37:42.202Z,90.30
2019-03-02T23:40:15.716Z,90.20
2019-03-02T23:42:43.288Z,90.30
2019-03-02T23:45:14.697Z,89.40
2019-03-02T23:47:43.301Z,89.40
2019-03-02T23:50:10.880Z,89.40
2019-03-02T23:52:39.241Z,89.80
2019-03-02T23:55:06.865Z,89.70
2019-03-02T23:57:34.448Z,89.80
